sensor_id;sensor_type;location;lat;lon;timestamp;P1;durP1;ratioP1;P2;durP2;ratioP2
68273;SDS011;55104;47.356;19.448;2024-01-30T00:00:12;3.75;;;2.20;;
68273;SDS011;55104;47.356;19.448;2024-01-30T00:03:14;9.63;;;3.28;;
68273;SDS011;55104;47.356;19.448;2024-01-30T00:06:19;10.25;;;3.80;;
68273;SDS011;55104;47.356;19.448;2024-01-30T00:09:22;9.88;;;4.38;;
68273;SDS011;55104;47.356;19.448;2024-01-30T00:12:24;6.90;;;3.50;;
68273;SDS011;55104;47.356;19.448;2024-01-30T00:15:28;13.25;;;3.70;;
68273;SDS011;55104;47.356;19.448;2024-01-30T00:18:30;5.85;;;2.88;;
68273;SDS011;55104;47.356;19.448;2024-01-30T00:21:32;10.80;;;2.90;;
68273;SDS011;55104;47.356;19.448;2024-01-30T00:24:34;8.27;;;4.15;;
68273;SDS011;55104;47.356;19.448;2024-01-30T00:27:37;9.45;;;3.55;;
68273;SDS011;55104;47.356;19.448;2024-01-30T00:30:39;9.23;;;4.40;;
68273;SDS011;55104;47.356;19.448;2024-01-30T00:33:42;9.30;;;3.30;;
68273;SDS011;55104;47.356;19.448;2024-01-30T00:36:44;7.63;;;2.88;;
68273;SDS011;55104;47.356;19.448;2024-01-30T00:39:46;12.20;;;3.25;;
68273;SDS011;55104;47.356;19.448;2024-01-30T00:42:49;7.07;;;3.47;;
68273;SDS011;55104;47.356;19.448;2024-01-30T00:45:51;7.65;;;3.45;;
68273;SDS011;55104;47.356;19.448;2024-01-30T00:48:56;9.65;;;3.88;;
68273;SDS011;55104;47.356;19.448;2024-01-30T00:51:58;9.53;;;2.97;;
68273;SDS011;55104;47.356;19.448;2024-01-30T00:55:01;11.90;;;4.47;;
68273;SDS011;55104;47.356;19.448;2024-01-30T00:58:04;6.88;;;3.72;;
68273;SDS011;55104;47.356;19.448;2024-01-30T01:01:06;9.10;;;3.67;;
68273;SDS011;55104;47.356;19.448;2024-01-30T01:04:09;8.85;;;3.67;;
68273;SDS011;55104;47.356;19.448;2024-01-30T01:07:12;11.00;;;4.18;;
68273;SDS011;55104;47.356;19.448;2024-01-30T01:10:14;8.80;;;2.85;;
68273;SDS011;55104;47.356;19.448;2024-01-30T01:13:18;21.03;;;4.63;;
68273;SDS011;55104;47.356;19.448;2024-01-30T01:16:20;24.38;;;4.82;;
68273;SDS011;55104;47.356;19.448;2024-01-30T01:19:22;12.73;;;3.78;;
68273;SDS011;55104;47.356;19.448;2024-01-30T01:22:24;8.47;;;4.63;;
68273;SDS011;55104;47.356;19.448;2024-01-30T01:25:27;9.40;;;2.88;;
68273;SDS011;55104;47.356;19.448;2024-01-30T01:28:29;11.45;;;4.95;;
68273;SDS011;55104;47.356;19.448;2024-01-30T01:31:31;5.72;;;3.42;;
68273;SDS011;55104;47.356;19.448;2024-01-30T01:34:33;7.43;;;3.60;;
68273;SDS011;55104;47.356;19.448;2024-01-30T01:37:36;8.70;;;3.92;;
68273;SDS011;55104;47.356;19.448;2024-01-30T01:40:38;9.48;;;4.28;;
68273;SDS011;55104;47.356;19.448;2024-01-30T01:43:41;9.83;;;4.83;;
68273;SDS011;55104;47.356;19.448;2024-01-30T01:46:43;10.95;;;6.53;;
68273;SDS011;55104;47.356;19.448;2024-01-30T01:49:46;13.10;;;5.85;;
68273;SDS011;55104;47.356;19.448;2024-01-30T01:52:49;10.87;;;4.77;;
68273;SDS011;55104;47.356;19.448;2024-01-30T01:55:52;10.32;;;4.38;;
68273;SDS011;55104;47.356;19.448;2024-01-30T01:58:58;9.88;;;4.57;;
68273;SDS011;55104;47.356;19.448;2024-01-30T02:02:02;10.82;;;3.88;;
68273;SDS011;55104;47.356;19.448;2024-01-30T02:05:07;11.07;;;3.83;;
68273;SDS011;55104;47.356;19.448;2024-01-30T02:08:10;11.20;;;4.18;;
68273;SDS011;55104;47.356;19.448;2024-01-30T02:11:13;8.27;;;3.30;;
68273;SDS011;55104;47.356;19.448;2024-01-30T02:14:15;10.23;;;4.63;;
68273;SDS011;55104;47.356;19.448;2024-01-30T02:17:18;7.60;;;4.18;;
68273;SDS011;55104;47.356;19.448;2024-01-30T02:20:20;16.63;;;4.45;;
68273;SDS011;55104;47.356;19.448;2024-01-30T02:23:24;10.63;;;5.37;;
68273;SDS011;55104;47.356;19.448;2024-01-30T02:26:29;12.10;;;4.88;;
68273;SDS011;55104;47.356;19.448;2024-01-30T02:29:31;8.80;;;4.10;;
68273;SDS011;55104;47.356;19.448;2024-01-30T02:32:33;9.02;;;4.32;;
68273;SDS011;55104;47.356;19.448;2024-01-30T02:35:36;13.07;;;3.78;;
68273;SDS011;55104;47.356;19.448;2024-01-30T02:38:38;14.98;;;4.15;;
68273;SDS011;55104;47.356;19.448;2024-01-30T02:41:40;10.50;;;5.00;;
68273;SDS011;55104;47.356;19.448;2024-01-30T02:44:42;6.83;;;4.07;;
68273;SDS011;55104;47.356;19.448;2024-01-30T02:47:45;8.60;;;4.97;;
68273;SDS011;55104;47.356;19.448;2024-01-30T02:50:47;9.05;;;4.40;;
68273;SDS011;55104;47.356;19.448;2024-01-30T02:53:49;13.40;;;4.70;;
68273;SDS011;55104;47.356;19.448;2024-01-30T02:56:52;14.20;;;5.65;;
68273;SDS011;55104;47.356;19.448;2024-01-30T02:59:54;10.57;;;5.43;;
68273;SDS011;55104;47.356;19.448;2024-01-30T03:02:56;14.27;;;5.63;;
68273;SDS011;55104;47.356;19.448;2024-01-30T03:05:58;13.43;;;5.20;;
68273;SDS011;55104;47.356;19.448;2024-01-30T03:09:00;9.85;;;4.82;;
68273;SDS011;55104;47.356;19.448;2024-01-30T03:12:03;9.43;;;5.38;;
68273;SDS011;55104;47.356;19.448;2024-01-30T03:15:10;8.77;;;3.70;;
68273;SDS011;55104;47.356;19.448;2024-01-30T03:18:12;19.40;;;5.47;;
68273;SDS011;55104;47.356;19.448;2024-01-30T03:21:14;7.93;;;4.07;;
68273;SDS011;55104;47.356;19.448;2024-01-30T03:24:17;12.90;;;4.67;;
68273;SDS011;55104;47.356;19.448;2024-01-30T03:27:19;9.05;;;4.45;;
68273;SDS011;55104;47.356;19.448;2024-01-30T03:30:21;12.82;;;5.93;;
68273;SDS011;55104;47.356;19.448;2024-01-30T03:33:24;7.97;;;3.92;;
68273;SDS011;55104;47.356;19.448;2024-01-30T03:36:26;7.97;;;3.90;;
68273;SDS011;55104;47.356;19.448;2024-01-30T03:39:29;12.38;;;5.20;;
68273;SDS011;55104;47.356;19.448;2024-01-30T03:42:32;11.93;;;4.25;;
68273;SDS011;55104;47.356;19.448;2024-01-30T03:45:34;14.57;;;6.27;;
68273;SDS011;55104;47.356;19.448;2024-01-30T03:48:36;10.50;;;5.30;;
68273;SDS011;55104;47.356;19.448;2024-01-30T03:51:39;19.40;;;6.60;;
68273;SDS011;55104;47.356;19.448;2024-01-30T03:54:41;11.63;;;4.30;;
68273;SDS011;55104;47.356;19.448;2024-01-30T03:57:43;9.73;;;5.32;;
68273;SDS011;55104;47.356;19.448;2024-01-30T04:00:46;10.40;;;4.82;;
68273;SDS011;55104;47.356;19.448;2024-01-30T04:03:48;8.75;;;4.75;;
68273;SDS011;55104;47.356;19.448;2024-01-30T04:06:50;17.20;;;6.03;;
68273;SDS011;55104;47.356;19.448;2024-01-30T04:09:53;10.57;;;3.75;;
68273;SDS011;55104;47.356;19.448;2024-01-30T04:12:55;9.35;;;4.40;;
68273;SDS011;55104;47.356;19.448;2024-01-30T04:15:58;17.80;;;4.40;;
68273;SDS011;55104;47.356;19.448;2024-01-30T04:19:03;11.25;;;5.38;;
68273;SDS011;55104;47.356;19.448;2024-01-30T04:22:05;8.60;;;5.15;;
68273;SDS011;55104;47.356;19.448;2024-01-30T04:25:08;14.80;;;5.57;;
68273;SDS011;55104;47.356;19.448;2024-01-30T04:28:10;11.95;;;5.65;;
68273;SDS011;55104;47.356;19.448;2024-01-30T04:31:16;9.60;;;4.28;;
68273;SDS011;55104;47.356;19.448;2024-01-30T04:34:18;16.42;;;6.00;;
68273;SDS011;55104;47.356;19.448;2024-01-30T04:37:20;20.55;;;6.95;;
68273;SDS011;55104;47.356;19.448;2024-01-30T04:40:23;18.08;;;6.22;;
68273;SDS011;55104;47.356;19.448;2024-01-30T04:43:25;9.88;;;3.90;;
68273;SDS011;55104;47.356;19.448;2024-01-30T04:46:28;12.23;;;4.37;;
68273;SDS011;55104;47.356;19.448;2024-01-30T04:49:30;15.18;;;5.60;;
68273;SDS011;55104;47.356;19.448;2024-01-30T04:52:33;8.38;;;3.75;;
68273;SDS011;55104;47.356;19.448;2024-01-30T04:55:35;11.30;;;3.67;;
68273;SDS011;55104;47.356;19.448;2024-01-30T04:58:38;6.25;;;2.42;;
68273;SDS011;55104;47.356;19.448;2024-01-30T05:01:40;9.15;;;4.43;;
68273;SDS011;55104;47.356;19.448;2024-01-30T05:04:42;12.77;;;3.60;;
68273;SDS011;55104;47.356;19.448;2024-01-30T05:07:45;15.05;;;5.72;;
68273;SDS011;55104;47.356;19.448;2024-01-30T05:10:47;8.05;;;4.50;;
68273;SDS011;55104;47.356;19.448;2024-01-30T05:13:49;19.08;;;5.10;;
68273;SDS011;55104;47.356;19.448;2024-01-30T05:16:51;14.10;;;5.67;;
68273;SDS011;55104;47.356;19.448;2024-01-30T05:19:54;16.27;;;4.78;;
68273;SDS011;55104;47.356;19.448;2024-01-30T05:22:56;11.55;;;5.82;;
68273;SDS011;55104;47.356;19.448;2024-01-30T05:25:59;6.73;;;3.53;;
68273;SDS011;55104;47.356;19.448;2024-01-30T05:29:03;10.40;;;4.38;;
68273;SDS011;55104;47.356;19.448;2024-01-30T05:32:05;11.73;;;5.20;;
68273;SDS011;55104;47.356;19.448;2024-01-30T05:35:08;11.68;;;5.35;;
68273;SDS011;55104;47.356;19.448;2024-01-30T05:38:11;6.15;;;4.30;;
68273;SDS011;55104;47.356;19.448;2024-01-30T05:41:13;13.70;;;6.82;;
68273;SDS011;55104;47.356;19.448;2024-01-30T05:44:15;20.45;;;6.10;;
68273;SDS011;55104;47.356;19.448;2024-01-30T05:47:17;11.50;;;5.83;;
68273;SDS011;55104;47.356;19.448;2024-01-30T05:50:20;10.45;;;6.47;;
68273;SDS011;55104;47.356;19.448;2024-01-30T05:53:25;11.95;;;6.68;;
68273;SDS011;55104;47.356;19.448;2024-01-30T05:56:27;8.67;;;4.77;;
68273;SDS011;55104;47.356;19.448;2024-01-30T05:59:30;19.67;;;7.93;;
68273;SDS011;55104;47.356;19.448;2024-01-30T06:02:32;16.20;;;7.03;;
68273;SDS011;55104;47.356;19.448;2024-01-30T06:05:34;11.77;;;6.47;;
68273;SDS011;55104;47.356;19.448;2024-01-30T06:08:37;11.75;;;5.55;;
68273;SDS011;55104;47.356;19.448;2024-01-30T06:11:39;11.52;;;5.72;;
68273;SDS011;55104;47.356;19.448;2024-01-30T06:14:42;13.00;;;6.32;;
68273;SDS011;55104;47.356;19.448;2024-01-30T06:17:48;9.67;;;5.77;;
68273;SDS011;55104;47.356;19.448;2024-01-30T06:20:50;15.48;;;4.60;;
68273;SDS011;55104;47.356;19.448;2024-01-30T06:23:53;9.00;;;3.97;;
68273;SDS011;55104;47.356;19.448;2024-01-30T06:26:56;9.43;;;4.63;;
68273;SDS011;55104;47.356;19.448;2024-01-30T06:29:58;15.85;;;6.05;;
68273;SDS011;55104;47.356;19.448;2024-01-30T06:33:01;11.40;;;6.18;;
68273;SDS011;55104;47.356;19.448;2024-01-30T06:36:03;20.83;;;8.18;;
68273;SDS011;55104;47.356;19.448;2024-01-30T06:39:05;9.25;;;4.05;;
68273;SDS011;55104;47.356;19.448;2024-01-30T06:42:08;12.35;;;3.80;;
68273;SDS011;55104;47.356;19.448;2024-01-30T06:45:10;14.73;;;5.63;;
68273;SDS011;55104;47.356;19.448;2024-01-30T06:48:13;10.70;;;6.27;;
68273;SDS011;55104;47.356;19.448;2024-01-30T06:51:15;13.27;;;5.28;;
68273;SDS011;55104;47.356;19.448;2024-01-30T06:54:19;11.45;;;3.47;;
68273;SDS011;55104;47.356;19.448;2024-01-30T06:57:21;18.97;;;5.53;;
68273;SDS011;55104;47.356;19.448;2024-01-30T07:00:23;12.18;;;5.93;;
68273;SDS011;55104;47.356;19.448;2024-01-30T07:03:26;13.07;;;6.03;;
68273;SDS011;55104;47.356;19.448;2024-01-30T07:06:28;14.98;;;6.20;;
68273;SDS011;55104;47.356;19.448;2024-01-30T07:09:31;13.63;;;4.93;;
68273;SDS011;55104;47.356;19.448;2024-01-30T07:12:33;9.75;;;5.93;;
68273;SDS011;55104;47.356;19.448;2024-01-30T07:15:35;14.75;;;6.45;;
68273;SDS011;55104;47.356;19.448;2024-01-30T07:18:38;13.03;;;4.67;;
68273;SDS011;55104;47.356;19.448;2024-01-30T07:21:40;12.25;;;5.15;;
68273;SDS011;55104;47.356;19.448;2024-01-30T07:24:43;7.90;;;4.22;;
68273;SDS011;55104;47.356;19.448;2024-01-30T07:27:51;12.17;;;4.83;;
68273;SDS011;55104;47.356;19.448;2024-01-30T07:30:53;14.55;;;6.63;;
68273;SDS011;55104;47.356;19.448;2024-01-30T07:33:55;12.07;;;4.90;;
68273;SDS011;55104;47.356;19.448;2024-01-30T07:36:57;10.55;;;4.43;;
68273;SDS011;55104;47.356;19.448;2024-01-30T07:40:01;9.57;;;5.25;;
68273;SDS011;55104;47.356;19.448;2024-01-30T07:43:04;12.60;;;4.32;;
68273;SDS011;55104;47.356;19.448;2024-01-30T07:46:06;9.82;;;4.22;;
68273;SDS011;55104;47.356;19.448;2024-01-30T07:49:08;15.93;;;4.93;;
68273;SDS011;55104;47.356;19.448;2024-01-30T07:52:12;13.20;;;4.90;;
68273;SDS011;55104;47.356;19.448;2024-01-30T07:55:14;10.48;;;4.45;;
68273;SDS011;55104;47.356;19.448;2024-01-30T07:58:16;16.07;;;5.23;;
68273;SDS011;55104;47.356;19.448;2024-01-30T08:01:19;11.00;;;4.57;;
68273;SDS011;55104;47.356;19.448;2024-01-30T08:04:21;11.30;;;3.33;;
68273;SDS011;55104;47.356;19.448;2024-01-30T08:07:24;13.98;;;5.68;;
68273;SDS011;55104;47.356;19.448;2024-01-30T08:10:26;14.48;;;6.85;;
68273;SDS011;55104;47.356;19.448;2024-01-30T08:13:29;13.13;;;5.53;;
68273;SDS011;55104;47.356;19.448;2024-01-30T08:16:31;16.20;;;6.60;;
68273;SDS011;55104;47.356;19.448;2024-01-30T08:19:34;12.53;;;5.53;;
68273;SDS011;55104;47.356;19.448;2024-01-30T08:22:37;12.00;;;6.30;;
68273;SDS011;55104;47.356;19.448;2024-01-30T08:25:41;17.42;;;4.53;;
68273;SDS011;55104;47.356;19.448;2024-01-30T08:28:43;11.10;;;5.50;;
68273;SDS011;55104;47.356;19.448;2024-01-30T08:31:45;13.88;;;7.00;;
68273;SDS011;55104;47.356;19.448;2024-01-30T08:34:48;24.23;;;6.20;;
68273;SDS011;55104;47.356;19.448;2024-01-30T08:37:50;10.88;;;5.15;;
68273;SDS011;55104;47.356;19.448;2024-01-30T08:40:52;14.65;;;7.10;;
68273;SDS011;55104;47.356;19.448;2024-01-30T08:43:54;13.23;;;5.50;;
68273;SDS011;55104;47.356;19.448;2024-01-30T08:46:57;19.70;;;6.88;;
68273;SDS011;55104;47.356;19.448;2024-01-30T08:50:01;16.20;;;5.40;;
68273;SDS011;55104;47.356;19.448;2024-01-30T08:53:04;11.43;;;4.75;;
68273;SDS011;55104;47.356;19.448;2024-01-30T08:56:07;18.40;;;8.35;;
68273;SDS011;55104;47.356;19.448;2024-01-30T08:59:09;18.47;;;5.80;;
68273;SDS011;55104;47.356;19.448;2024-01-30T09:02:13;13.60;;;6.50;;
68273;SDS011;55104;47.356;19.448;2024-01-30T09:05:18;14.55;;;5.18;;
68273;SDS011;55104;47.356;19.448;2024-01-30T09:08:20;13.57;;;6.47;;
68273;SDS011;55104;47.356;19.448;2024-01-30T09:11:23;17.38;;;5.95;;
68273;SDS011;55104;47.356;19.448;2024-01-30T09:14:26;15.73;;;7.40;;
68273;SDS011;55104;47.356;19.448;2024-01-30T09:17:28;15.35;;;8.00;;
68273;SDS011;55104;47.356;19.448;2024-01-30T09:20:31;19.70;;;8.43;;
68273;SDS011;55104;47.356;19.448;2024-01-30T09:23:35;14.68;;;8.35;;
68273;SDS011;55104;47.356;19.448;2024-01-30T09:26:38;21.45;;;10.23;;
68273;SDS011;55104;47.356;19.448;2024-01-30T09:29:40;18.43;;;6.63;;
68273;SDS011;55104;47.356;19.448;2024-01-30T09:32:42;13.68;;;5.70;;
68273;SDS011;55104;47.356;19.448;2024-01-30T09:35:45;16.88;;;7.25;;
68273;SDS011;55104;47.356;19.448;2024-01-30T09:38:47;16.98;;;5.75;;
68273;SDS011;55104;47.356;19.448;2024-01-30T09:41:53;12.80;;;4.68;;
68273;SDS011;55104;47.356;19.448;2024-01-30T09:45:01;16.52;;;5.80;;
68273;SDS011;55104;47.356;19.448;2024-01-30T09:48:05;17.13;;;5.95;;
68273;SDS011;55104;47.356;19.448;2024-01-30T09:51:07;12.03;;;5.37;;
68273;SDS011;55104;47.356;19.448;2024-01-30T09:54:11;14.90;;;6.38;;
68273;SDS011;55104;47.356;19.448;2024-01-30T09:57:16;17.88;;;7.10;;
68273;SDS011;55104;47.356;19.448;2024-01-30T10:00:19;12.97;;;5.73;;
68273;SDS011;55104;47.356;19.448;2024-01-30T10:03:22;16.42;;;7.18;;
68273;SDS011;55104;47.356;19.448;2024-01-30T10:06:24;15.93;;;7.15;;
68273;SDS011;55104;47.356;19.448;2024-01-30T10:09:27;13.60;;;6.80;;
68273;SDS011;55104;47.356;19.448;2024-01-30T10:12:29;12.32;;;5.22;;
68273;SDS011;55104;47.356;19.448;2024-01-30T10:15:31;19.70;;;8.35;;
68273;SDS011;55104;47.356;19.448;2024-01-30T10:18:34;15.02;;;5.53;;
68273;SDS011;55104;47.356;19.448;2024-01-30T10:21:36;19.80;;;6.87;;
68273;SDS011;55104;47.356;19.448;2024-01-30T10:24:38;14.32;;;6.30;;
68273;SDS011;55104;47.356;19.448;2024-01-30T10:27:41;18.88;;;6.05;;
68273;SDS011;55104;47.356;19.448;2024-01-30T10:30:43;15.23;;;6.43;;
68273;SDS011;55104;47.356;19.448;2024-01-30T10:33:45;11.73;;;5.93;;
68273;SDS011;55104;47.356;19.448;2024-01-30T10:36:48;14.70;;;6.30;;
68273;SDS011;55104;47.356;19.448;2024-01-30T10:39:53;15.20;;;7.40;;
68273;SDS011;55104;47.356;19.448;2024-01-30T10:42:59;16.20;;;6.90;;
68273;SDS011;55104;47.356;19.448;2024-01-30T10:46:18;15.23;;;6.65;;
68273;SDS011;55104;47.356;19.448;2024-01-30T10:49:22;14.43;;;7.55;;
68273;SDS011;55104;47.356;19.448;2024-01-30T10:52:26;11.50;;;6.90;;
68273;SDS011;55104;47.356;19.448;2024-01-30T10:55:32;11.20;;;5.95;;
68273;SDS011;55104;47.356;19.448;2024-01-30T10:58:37;21.65;;;8.38;;
68273;SDS011;55104;47.356;19.448;2024-01-30T11:01:45;18.47;;;5.90;;
68273;SDS011;55104;47.356;19.448;2024-01-30T11:04:56;15.18;;;5.93;;
68273;SDS011;55104;47.356;19.448;2024-01-30T11:08:10;13.48;;;5.88;;
68273;SDS011;55104;47.356;19.448;2024-01-30T11:11:16;17.63;;;5.55;;
68273;SDS011;55104;47.356;19.448;2024-01-30T11:14:23;19.30;;;7.95;;
68273;SDS011;55104;47.356;19.448;2024-01-30T11:17:27;19.90;;;7.32;;
68273;SDS011;55104;47.356;19.448;2024-01-30T11:20:30;20.42;;;6.93;;
68273;SDS011;55104;47.356;19.448;2024-01-30T11:23:33;19.33;;;6.30;;
68273;SDS011;55104;47.356;19.448;2024-01-30T11:26:37;19.48;;;5.45;;
68273;SDS011;55104;47.356;19.448;2024-01-30T11:29:40;19.55;;;6.88;;
68273;SDS011;55104;47.356;19.448;2024-01-30T11:32:42;13.93;;;7.27;;
68273;SDS011;55104;47.356;19.448;2024-01-30T11:35:45;14.32;;;5.60;;
68273;SDS011;55104;47.356;19.448;2024-01-30T11:38:49;12.68;;;6.40;;
68273;SDS011;55104;47.356;19.448;2024-01-30T11:41:51;13.23;;;6.00;;
68273;SDS011;55104;47.356;19.448;2024-01-30T11:44:56;10.95;;;5.13;;
68273;SDS011;55104;47.356;19.448;2024-01-30T11:47:58;17.50;;;5.72;;
68273;SDS011;55104;47.356;19.448;2024-01-30T11:51:05;12.65;;;4.65;;
68273;SDS011;55104;47.356;19.448;2024-01-30T11:54:08;12.10;;;6.13;;
68273;SDS011;55104;47.356;19.448;2024-01-30T11:57:10;18.92;;;5.95;;
68273;SDS011;55104;47.356;19.448;2024-01-30T12:00:16;12.15;;;4.88;;
68273;SDS011;55104;47.356;19.448;2024-01-30T12:03:20;14.27;;;6.23;;
68273;SDS011;55104;47.356;19.448;2024-01-30T12:06:22;15.85;;;6.22;;
68273;SDS011;55104;47.356;19.448;2024-01-30T12:09:25;13.70;;;5.45;;
68273;SDS011;55104;47.356;19.448;2024-01-30T12:12:29;41.78;;;15.15;;
68273;SDS011;55104;47.356;19.448;2024-01-30T12:15:32;29.23;;;12.98;;
68273;SDS011;55104;47.356;19.448;2024-01-30T12:18:34;13.70;;;6.72;;
68273;SDS011;55104;47.356;19.448;2024-01-30T12:21:37;29.77;;;12.35;;
68273;SDS011;55104;47.356;19.448;2024-01-30T12:24:40;25.80;;;9.80;;
68273;SDS011;55104;47.356;19.448;2024-01-30T12:27:43;23.85;;;9.45;;
68273;SDS011;55104;47.356;19.448;2024-01-30T12:30:56;20.40;;;7.47;;
68273;SDS011;55104;47.356;19.448;2024-01-30T12:34:00;11.03;;;4.77;;
68273;SDS011;55104;47.356;19.448;2024-01-30T12:37:03;16.95;;;7.22;;
68273;SDS011;55104;47.356;19.448;2024-01-30T12:40:09;17.88;;;7.30;;
68273;SDS011;55104;47.356;19.448;2024-01-30T12:43:13;12.60;;;6.72;;
68273;SDS011;55104;47.356;19.448;2024-01-30T12:46:31;14.52;;;6.55;;
68273;SDS011;55104;47.356;19.448;2024-01-30T12:49:35;11.63;;;5.20;;
68273;SDS011;55104;47.356;19.448;2024-01-30T12:52:37;13.98;;;5.10;;
68273;SDS011;55104;47.356;19.448;2024-01-30T12:55:40;13.03;;;5.30;;
68273;SDS011;55104;47.356;19.448;2024-01-30T12:58:42;12.43;;;4.72;;
68273;SDS011;55104;47.356;19.448;2024-01-30T13:01:46;13.10;;;4.22;;
68273;SDS011;55104;47.356;19.448;2024-01-30T13:04:49;13.57;;;5.53;;
68273;SDS011;55104;47.356;19.448;2024-01-30T13:07:52;13.18;;;4.78;;
68273;SDS011;55104;47.356;19.448;2024-01-30T13:10:55;13.63;;;4.63;;
68273;SDS011;55104;47.356;19.448;2024-01-30T13:13:57;9.70;;;4.65;;
68273;SDS011;55104;47.356;19.448;2024-01-30T13:17:00;15.23;;;5.68;;
68273;SDS011;55104;47.356;19.448;2024-01-30T13:20:03;11.18;;;4.85;;
68273;SDS011;55104;47.356;19.448;2024-01-30T13:23:13;21.70;;;9.43;;
68273;SDS011;55104;47.356;19.448;2024-01-30T13:26:15;19.73;;;8.73;;
68273;SDS011;55104;47.356;19.448;2024-01-30T13:29:18;25.95;;;10.00;;
68273;SDS011;55104;47.356;19.448;2024-01-30T13:32:20;14.57;;;5.25;;
68273;SDS011;55104;47.356;19.448;2024-01-30T13:35:23;17.60;;;6.67;;
68273;SDS011;55104;47.356;19.448;2024-01-30T13:38:25;17.42;;;6.50;;
68273;SDS011;55104;47.356;19.448;2024-01-30T13:41:28;16.10;;;6.28;;
68273;SDS011;55104;47.356;19.448;2024-01-30T13:44:31;14.98;;;6.72;;
68273;SDS011;55104;47.356;19.448;2024-01-30T13:47:34;15.75;;;5.70;;
68273;SDS011;55104;47.356;19.448;2024-01-30T13:50:36;17.80;;;7.20;;
68273;SDS011;55104;47.356;19.448;2024-01-30T13:53:38;17.95;;;6.28;;
68273;SDS011;55104;47.356;19.448;2024-01-30T13:56:41;20.27;;;6.70;;
68273;SDS011;55104;47.356;19.448;2024-01-30T13:59:43;23.55;;;7.38;;
68273;SDS011;55104;47.356;19.448;2024-01-30T14:02:45;19.50;;;6.50;;
68273;SDS011;55104;47.356;19.448;2024-01-30T14:05:48;13.20;;;6.20;;
68273;SDS011;55104;47.356;19.448;2024-01-30T14:08:50;18.33;;;6.38;;
68273;SDS011;55104;47.356;19.448;2024-01-30T14:12:02;15.80;;;6.00;;
68273;SDS011;55104;47.356;19.448;2024-01-30T14:15:06;16.50;;;6.68;;
68273;SDS011;55104;47.356;19.448;2024-01-30T14:18:24;15.25;;;5.72;;
68273;SDS011;55104;47.356;19.448;2024-01-30T14:21:27;15.18;;;5.57;;
68273;SDS011;55104;47.356;19.448;2024-01-30T14:24:29;18.38;;;6.70;;
68273;SDS011;55104;47.356;19.448;2024-01-30T14:27:31;12.37;;;6.20;;
68273;SDS011;55104;47.356;19.448;2024-01-30T14:30:34;16.98;;;5.68;;
68273;SDS011;55104;47.356;19.448;2024-01-30T14:33:37;20.25;;;7.35;;
68273;SDS011;55104;47.356;19.448;2024-01-30T14:36:41;20.80;;;6.50;;
68273;SDS011;55104;47.356;19.448;2024-01-30T14:39:43;14.95;;;6.15;;
68273;SDS011;55104;47.356;19.448;2024-01-30T14:42:46;20.60;;;6.60;;
68273;SDS011;55104;47.356;19.448;2024-01-30T14:45:49;16.15;;;6.25;;
68273;SDS011;55104;47.356;19.448;2024-01-30T14:48:51;24.75;;;7.88;;
68273;SDS011;55104;47.356;19.448;2024-01-30T14:51:54;23.65;;;8.27;;
68273;SDS011;55104;47.356;19.448;2024-01-30T14:54:56;20.58;;;8.52;;
68273;SDS011;55104;47.356;19.448;2024-01-30T14:58:00;21.27;;;7.93;;
68273;SDS011;55104;47.356;19.448;2024-01-30T15:01:04;25.58;;;9.68;;
68273;SDS011;55104;47.356;19.448;2024-01-30T15:04:07;33.10;;;13.85;;
68273;SDS011;55104;47.356;19.448;2024-01-30T15:07:09;26.20;;;11.50;;
68273;SDS011;55104;47.356;19.448;2024-01-30T15:10:15;35.38;;;14.48;;
68273;SDS011;55104;47.356;19.448;2024-01-30T15:13:18;27.95;;;13.23;;
68273;SDS011;55104;47.356;19.448;2024-01-30T15:16:21;31.25;;;15.50;;
68273;SDS011;55104;47.356;19.448;2024-01-30T15:19:23;25.23;;;12.40;;
68273;SDS011;55104;47.356;19.448;2024-01-30T15:22:26;29.27;;;12.25;;
68273;SDS011;55104;47.356;19.448;2024-01-30T15:25:29;27.67;;;12.57;;
68273;SDS011;55104;47.356;19.448;2024-01-30T15:28:35;16.90;;;7.23;;
68273;SDS011;55104;47.356;19.448;2024-01-30T15:31:39;14.45;;;6.70;;
68273;SDS011;55104;47.356;19.448;2024-01-30T15:34:42;15.68;;;8.32;;
68273;SDS011;55104;47.356;19.448;2024-01-30T15:37:44;20.50;;;6.47;;
68273;SDS011;55104;47.356;19.448;2024-01-30T15:40:46;15.40;;;7.45;;
68273;SDS011;55104;47.356;19.448;2024-01-30T15:43:49;15.07;;;6.85;;
68273;SDS011;55104;47.356;19.448;2024-01-30T15:46:51;14.45;;;7.32;;
68273;SDS011;55104;47.356;19.448;2024-01-30T15:49:54;19.77;;;8.05;;
68273;SDS011;55104;47.356;19.448;2024-01-30T15:52:56;19.33;;;7.70;;
68273;SDS011;55104;47.356;19.448;2024-01-30T15:55:59;17.60;;;7.32;;
68273;SDS011;55104;47.356;19.448;2024-01-30T15:59:01;28.60;;;9.13;;
68273;SDS011;55104;47.356;19.448;2024-01-30T16:02:03;25.42;;;8.27;;
68273;SDS011;55104;47.356;19.448;2024-01-30T16:05:08;18.33;;;7.90;;
68273;SDS011;55104;47.356;19.448;2024-01-30T16:08:10;16.50;;;9.10;;
68273;SDS011;55104;47.356;19.448;2024-01-30T16:11:13;14.65;;;7.70;;
68273;SDS011;55104;47.356;19.448;2024-01-30T16:14:19;20.05;;;9.05;;
68273;SDS011;55104;47.356;19.448;2024-01-30T16:17:21;17.00;;;7.18;;
68273;SDS011;55104;47.356;19.448;2024-01-30T16:20:23;15.80;;;6.50;;
68273;SDS011;55104;47.356;19.448;2024-01-30T16:23:26;14.30;;;7.45;;
68273;SDS011;55104;47.356;19.448;2024-01-30T16:26:31;14.18;;;5.93;;
68273;SDS011;55104;47.356;19.448;2024-01-30T16:29:33;17.43;;;8.50;;
68273;SDS011;55104;47.356;19.448;2024-01-30T16:32:37;13.15;;;6.25;;
68273;SDS011;55104;47.356;19.448;2024-01-30T16:35:39;20.15;;;7.22;;
68273;SDS011;55104;47.356;19.448;2024-01-30T16:38:48;19.60;;;8.57;;
68273;SDS011;55104;47.356;19.448;2024-01-30T16:41:50;14.80;;;7.57;;
68273;SDS011;55104;47.356;19.448;2024-01-30T16:44:52;32.30;;;10.95;;
68273;SDS011;55104;47.356;19.448;2024-01-30T16:47:54;29.73;;;11.00;;
68273;SDS011;55104;47.356;19.448;2024-01-30T16:50:56;18.73;;;9.52;;
68273;SDS011;55104;47.356;19.448;2024-01-30T16:53:59;21.83;;;8.45;;
68273;SDS011;55104;47.356;19.448;2024-01-30T16:57:02;18.20;;;7.30;;
68273;SDS011;55104;47.356;19.448;2024-01-30T17:00:05;19.43;;;9.00;;
68273;SDS011;55104;47.356;19.448;2024-01-30T17:03:08;21.05;;;8.32;;
68273;SDS011;55104;47.356;19.448;2024-01-30T17:06:10;22.23;;;7.93;;
68273;SDS011;55104;47.356;19.448;2024-01-30T17:09:13;20.03;;;7.73;;
68273;SDS011;55104;47.356;19.448;2024-01-30T17:12:17;24.48;;;6.22;;
68273;SDS011;55104;47.356;19.448;2024-01-30T17:15:19;12.57;;;4.55;;
68273;SDS011;55104;47.356;19.448;2024-01-30T17:18:21;27.52;;;7.05;;
68273;SDS011;55104;47.356;19.448;2024-01-30T17:21:24;13.48;;;6.85;;
68273;SDS011;55104;47.356;19.448;2024-01-30T17:24:27;18.20;;;8.05;;
68273;SDS011;55104;47.356;19.448;2024-01-30T17:27:46;22.70;;;7.90;;
68273;SDS011;55104;47.356;19.448;2024-01-30T17:30:49;24.47;;;9.77;;
68273;SDS011;55104;47.356;19.448;2024-01-30T17:33:52;18.73;;;10.75;;
68273;SDS011;55104;47.356;19.448;2024-01-30T17:36:55;26.73;;;9.68;;
68273;SDS011;55104;47.356;19.448;2024-01-30T17:39:58;23.93;;;10.67;;
68273;SDS011;55104;47.356;19.448;2024-01-30T17:43:03;36.35;;;10.75;;
68273;SDS011;55104;47.356;19.448;2024-01-30T17:46:18;19.50;;;10.13;;
68273;SDS011;55104;47.356;19.448;2024-01-30T17:49:20;21.25;;;9.35;;
68273;SDS011;55104;47.356;19.448;2024-01-30T17:52:23;18.20;;;8.40;;